createdAt,value
2023-04-25T00:00:27.973Z,95704.75
2023-04-25T00:02:57.733Z,95706.38
2023-04-25T00:05:26.782Z,95699.81
2023-04-25T00:07:55.333Z,95701.00
2023-04-25T00:10:23.954Z,95695.25
2023-04-25T00:12:54.517Z,95689.97
2023-04-25T00:15:23.156Z,95692.59
2023-04-25T00:17:53.836Z,95687.16
2023-04-25T00:20:22.897Z,95687.59
2023-04-25T00:22:51.921Z,95689.88
2023-04-25T00:25:20.534Z,95686.25
2023-04-25T00:27:49.026Z,95679.81
2023-04-25T00:30:18.811Z,95677.72
2023-04-25T00:32:47.209Z,95673.09
2023-04-25T00:35:15.620Z,95682.84
2023-04-25T00:37:43.994Z,95673.47
2023-04-25T00:40:12.964Z,95675.47
2023-04-25T00:42:44.012Z,95676.13
2023-04-25T00:45:15.357Z,95665.38
2023-04-25T00:47:46.374Z,95667.56
2023-04-25T00:50:14.928Z,95658.34
2023-04-25T00:52:47.024Z,95659.00
2023-04-25T00:55:16.802Z,95656.00
2023-04-25T00:57:45.355Z,95656.47
2023-04-25T01:00:14.484Z,95652.84
2023-04-25T01:02:52.350Z,95657.09
2023-04-25T01:05:20.862Z,95665.81
2023-04-25T01:07:49.301Z,95666.94
2023-04-25T01:10:17.678Z,95667.50
2023-04-25T01:12:46.115Z,95673.56
2023-04-25T01:15:14.465Z,95661.19
2023-04-25T01:17:45.287Z,95659.41
2023-04-25T01:20:16.250Z,95662.84
2023-04-25T01:22:46.091Z,95666.94
2023-04-25T01:25:14.730Z,95665.16
2023-04-25T01:27:44.336Z,95661.88
2023-04-25T01:30:13.311Z,95664.69
2023-04-25T01:32:42.777Z,95659.75
2023-04-25T01:35:13.996Z,95662.75
2023-04-25T01:37:46.543Z,95675.47
2023-04-25T01:40:16.332Z,95675.34
2023-04-25T01:42:46.276Z,95669.97
2023-04-25T01:45:14.722Z,95666.69
2023-04-25T01:47:47.943Z,95660.06
2023-04-25T01:50:16.979Z,95664.78
2023-04-25T01:52:45.670Z,95657.97
2023-04-25T01:55:14.121Z,95655.28
2023-04-25T01:57:45.124Z,95650.94
2023-04-25T02:00:14.595Z,95649.09
2023-04-25T02:02:46.777Z,95649.94
2023-04-25T02:05:15.250Z,95647.31
2023-04-25T02:07:44.590Z,95650.19
2023-04-25T02:10:13.142Z,95637.16
2023-04-25T02:12:45.668Z,95634.75
2023-04-25T02:15:14.225Z,95632.44
2023-04-25T02:17:47.081Z,95642.03
2023-04-25T02:20:16.858Z,95638.28
2023-04-25T02:22:45.398Z,95638.44
2023-04-25T02:25:14.022Z,95634.53
2023-04-25T02:27:44.845Z,95636.22
2023-04-25T02:30:14.016Z,95643.91
2023-04-25T02:32:44.206Z,95633.09
2023-04-25T02:35:12.792Z,95635.53
2023-04-25T02:37:41.845Z,95633.25
2023-04-25T02:40:11.386Z,95631.25
2023-04-25T02:42:39.705Z,95633.78
2023-04-25T02:45:10.925Z,95638.94
2023-04-25T02:47:39.453Z,95628.28
2023-04-25T02:50:09.156Z,95632.78
2023-04-25T02:52:37.703Z,95632.03
2023-04-25T02:55:06.879Z,95631.72
2023-04-25T02:57:35.620Z,95630.06
2023-04-25T03:00:05.327Z,95629.25
2023-04-25T03:02:35.116Z,95623.19
2023-04-25T03:05:04.399Z,95622.00
2023-04-25T03:07:32.786Z,95628.94
2023-04-25T03:10:01.200Z,95624.28
2023-04-25T03:12:29.548Z,95615.19
2023-04-25T03:14:57.917Z,95618.47
2023-04-25T03:17:26.478Z,95612.66
2023-04-25T03:19:56.860Z,95607.22
2023-04-25T03:22:25.956Z,95608.88
2023-04-25T03:24:54.446Z,95617.59
2023-04-25T03:27:22.896Z,95621.06
2023-04-25T03:29:51.243Z,95617.78
2023-04-25T03:32:19.727Z,95618.97
2023-04-25T03:34:48.236Z,95628.31
2023-04-25T03:37:18.296Z,95614.00
2023-04-25T03:39:46.691Z,95619.53
2023-04-25T03:42:15.044Z,95612.25
2023-04-25T03:44:43.328Z,95607.00
2023-04-25T03:47:11.738Z,95614.56
2023-04-25T03:49:40.046Z,95611.56
2023-04-25T03:52:08.457Z,95610.22
2023-04-25T03:54:38.263Z,95614.16
2023-04-25T03:57:06.623Z,95620.25
2023-04-25T03:59:35.386Z,95620.06
2023-04-25T04:02:03.974Z,95625.81
2023-04-25T04:04:32.788Z,95622.00
2023-04-25T04:07:01.762Z,95620.81
2023-04-25T04:09:30.208Z,95628.22
2023-04-25T04:11:59.957Z,95626.38
2023-04-25T04:14:28.325Z,95624.56
2023-04-25T04:16:56.683Z,95628.22
2023-04-25T04:19:25.209Z,95646.22
2023-04-25T04:21:53.672Z,95672.22
2023-04-25T04:24:22.612Z,95658.72
2023-04-25T04:26:51.775Z,95673.91
2023-04-25T04:29:22.651Z,95657.00
2023-04-25T04:31:51.626Z,95639.59
2023-04-25T04:34:20.605Z,95637.13
2023-04-25T04:36:49.005Z,95636.63
2023-04-25T04:39:18.018Z,95631.09
2023-04-25T04:41:46.638Z,95639.47
2023-04-25T04:44:15.785Z,95639.25
2023-04-25T04:46:47.948Z,95630.94
2023-04-25T04:49:16.362Z,95633.84
2023-04-25T04:51:46.647Z,95638.88
2023-04-25T04:54:15.343Z,95634.53
2023-04-25T04:56:44.027Z,95644.72
2023-04-25T04:59:12.581Z,95641.28
2023-04-25T05:01:40.922Z,95634.66
2023-04-25T05:04:10.803Z,95632.00
2023-04-25T05:06:39.267Z,95637.50
2023-04-25T05:09:07.691Z,95646.16
2023-04-25T05:11:36.107Z,95640.16
2023-04-25T05:14:04.473Z,95647.44
2023-04-25T05:16:32.903Z,95656.00
2023-04-25T05:19:12.717Z,95678.88
2023-04-25T05:21:41.284Z,95694.84
2023-04-25T05:24:10.239Z,95689.47
2023-04-25T05:26:39.549Z,95679.16
2023-04-25T05:29:07.895Z,95671.47
2023-04-25T05:31:36.466Z,95665.53
2023-04-25T05:34:05.562Z,95666.19
2023-04-25T05:36:35.321Z,95664.56
2023-04-25T05:39:05.311Z,95661.28
2023-04-25T05:41:33.739Z,95665.09
2023-04-25T05:44:02.150Z,95654.72
2023-04-25T05:46:30.613Z,95657.84
2023-04-25T05:48:59.001Z,95658.81
2023-04-25T05:51:28.589Z,95654.00
2023-04-25T05:54:03.989Z,95655.00
2023-04-25T05:56:32.401Z,95650.53
2023-04-25T05:59:00.719Z,95660.59
2023-04-25T06:01:29.116Z,95665.41
2023-04-25T06:03:57.991Z,95662.63
2023-04-25T06:06:27.815Z,95659.34
2023-04-25T06:08:56.556Z,95662.63
2023-04-25T06:11:29.795Z,95659.84
2023-04-25T06:13:58.184Z,95655.38
2023-04-25T06:16:27.176Z,95658.16
2023-04-25T06:18:55.709Z,95646.84
2023-04-25T06:21:24.532Z,95648.84
2023-04-25T06:24:00.933Z,95647.91
2023-04-25T06:26:30.660Z,95643.91
2023-04-25T06:28:58.993Z,95641.56
2023-04-25T06:31:27.547Z,95634.22
2023-04-25T06:33:56.398Z,95633.16
2023-04-25T06:36:26.112Z,95642.03
2023-04-25T06:38:54.551Z,95627.72
2023-04-25T06:41:23.100Z,95626.63
2023-04-25T06:43:53.006Z,95631.03
2023-04-25T06:46:21.414Z,95627.75
2023-04-25T06:48:49.980Z,95624.94
2023-04-25T06:51:18.693Z,95622.75
2023-04-25T06:53:47.069Z,95620.91
2023-04-25T06:56:15.641Z,95623.38
2023-04-25T06:58:43.948Z,95623.84
2023-04-25T07:01:13.889Z,95618.34
2023-04-25T07:03:42.403Z,95621.38
2023-04-25T07:06:10.940Z,95614.34
2023-04-25T07:08:39.252Z,95612.97
2023-04-25T07:11:07.644Z,95611.59
2023-04-25T07:13:36.003Z,95606.41
2023-04-25T07:16:05.274Z,95608.94
2023-04-25T07:18:35.108Z,95597.19
2023-04-25T07:21:03.507Z,95599.75
2023-04-25T07:23:32.695Z,95606.75
2023-04-25T07:26:01.148Z,95599.69
2023-04-25T07:28:29.626Z,95583.13
2023-04-25T07:30:59.123Z,95594.38
2023-04-25T07:33:27.517Z,95594.69
2023-04-25T07:35:57.689Z,95599.69
2023-04-25T07:38:26.230Z,95592.44
2023-04-25T07:40:54.630Z,95600.06
2023-04-25T07:43:23.002Z,95612.28
2023-04-25T07:45:52.588Z,95594.56
2023-04-25T07:48:21.347Z,95595.84
2023-04-25T07:50:51.448Z,95594.63
2023-04-25T07:53:21.141Z,95597.03
2023-04-25T07:55:52.442Z,95603.22
2023-04-25T07:58:22.764Z,95599.06
2023-04-25T08:00:56.224Z,95603.75
2023-04-25T08:03:24.951Z,95598.91
2023-04-25T08:05:54.056Z,95595.94
2023-04-25T08:08:23.834Z,95602.50
2023-04-25T08:10:52.583Z,95595.84
2023-04-25T08:13:21.041Z,95600.19
2023-04-25T08:15:49.603Z,95600.66
2023-04-25T08:18:18.121Z,95598.91
2023-04-25T08:20:46.668Z,95598.69
2023-04-25T08:23:16.535Z,95608.72
2023-04-25T08:25:46.474Z,95597.97
2023-04-25T08:28:14.977Z,95596.22
2023-04-25T08:30:43.361Z,95592.00
2023-04-25T08:33:12.459Z,95596.06
2023-04-25T08:35:40.982Z,95594.19
2023-04-25T08:38:09.438Z,95591.91
2023-04-25T08:40:40.840Z,95588.59
2023-04-25T08:43:12.403Z,95596.91
2023-04-25T08:45:42.089Z,95606.06
2023-04-25T08:48:13.532Z,95606.69
2023-04-25T08:50:47.859Z,95605.09
2023-04-25T08:53:20.380Z,95611.47
2023-04-25T08:55:50.712Z,95605.38
2023-04-25T08:58:20.832Z,95609.72
2023-04-25T09:00:51.786Z,95602.44
2023-04-25T09:03:20.686Z,95603.31
2023-04-25T09:05:49.379Z,95603.34
2023-04-25T09:08:18.343Z,95608.66
2023-04-25T09:10:46.819Z,95612.84
2023-04-25T09:13:16.896Z,95609.13
2023-04-25T09:15:53.529Z,95601.44
2023-04-25T09:18:29.973Z,95602.53
2023-04-25T09:21:13.097Z,95593.00
2023-04-25T09:23:43.936Z,95598.91
2023-04-25T09:26:12.413Z,95598.91
2023-04-25T09:28:40.956Z,95601.31
2023-04-25T09:31:12.823Z,95603.31
2023-04-25T09:33:42.966Z,95623.00
2023-04-25T09:36:13.162Z,95617.28
2023-04-25T09:38:47.186Z,95623.44
2023-04-25T09:41:15.680Z,95638.81
2023-04-25T09:43:47.829Z,95655.66
2023-04-25T09:46:18.488Z,95679.56
2023-04-25T09:48:54.659Z,95656.19
2023-04-25T09:51:28.036Z,95658.47
2023-04-25T09:53:56.421Z,95645.53
2023-04-25T09:56:26.571Z,95658.25
2023-04-25T09:58:56.698Z,95649.56
2023-04-25T10:01:28.379Z,95657.25
2023-04-25T10:04:00.168Z,95644.53
2023-04-25T10:06:30.835Z,95643.84
2023-04-25T10:09:00.029Z,95638.53
2023-04-25T10:11:29.770Z,95639.25
2023-04-25T10:13:58.435Z,95630.47
2023-04-25T10:16:29.260Z,95626.53
2023-04-25T10:18:58.308Z,95622.13
2023-04-25T10:21:29.260Z,95624.66
2023-04-25T10:23:59.644Z,95620.84
2023-04-25T10:26:30.752Z,95623.75
2023-04-25T10:29:00.765Z,95616.41
2023-04-25T10:31:32.082Z,95617.31
2023-04-25T10:34:02.428Z,95615.56
2023-04-25T10:36:34.385Z,95607.88
2023-04-25T10:39:08.809Z,95604.47
2023-04-25T10:41:56.136Z,95601.03
2023-04-25T10:44:24.791Z,95594.13
2023-04-25T10:46:54.603Z,95597.41
2023-04-25T10:49:34.559Z,95600.28
2023-04-25T10:52:20.671Z,95603.50
2023-04-25T10:54:51.191Z,95605.53
2023-04-25T10:57:30.753Z,95603.72
2023-04-25T11:00:07.346Z,95600.03
2023-04-25T11:02:43.990Z,95597.16
2023-04-25T11:05:12.701Z,95588.00
2023-04-25T11:07:52.839Z,95604.13
2023-04-25T11:10:29.179Z,95596.41
2023-04-25T11:12:57.934Z,95598.44
2023-04-25T11:15:27.136Z,95598.44
2023-04-25T11:17:57.466Z,95603.53
2023-04-25T11:20:29.591Z,95599.03
2023-04-25T11:23:00.802Z,95596.78
2023-04-25T11:25:30.492Z,95603.09
2023-04-25T11:28:02.296Z,95602.88
2023-04-25T11:30:39.217Z,95596.78
2023-04-25T11:33:08.998Z,95593.94
2023-04-25T11:35:37.464Z,95583.53
2023-04-25T11:38:06.472Z,95582.94
2023-04-25T11:40:35.069Z,95585.59
2023-04-25T11:43:03.811Z,95595.00
2023-04-25T11:45:32.870Z,95593.94
2023-04-25T11:48:01.292Z,95600.28
2023-04-25T11:50:31.845Z,95623.31
2023-04-25T11:53:00.212Z,95642.28
2023-04-25T11:55:32.320Z,95674.94
2023-04-25T11:58:02.387Z,95710.25
2023-04-25T12:00:30.829Z,95718.78
2023-04-25T12:03:00.114Z,95732.19
2023-04-25T12:05:34.961Z,95732.56
2023-04-25T12:08:14.339Z,95738.66
2023-04-25T12:10:44.106Z,95738.66
2023-04-25T12:13:26.302Z,95751.03
2023-04-25T12:15:58.817Z,95743.41
2023-04-25T12:18:28.476Z,95753.13
2023-04-25T12:20:58.282Z,95743.75
2023-04-25T12:23:30.014Z,95743.56
2023-04-25T12:25:58.777Z,95750.09
2023-04-25T12:28:28.680Z,95747.56
2023-04-25T12:31:01.826Z,95758.88
2023-04-25T12:33:32.042Z,95748.16
2023-04-25T12:36:06.459Z,95757.16
2023-04-25T12:38:39.313Z,95750.31
2023-04-25T12:41:08.219Z,95750.56
2023-04-25T12:43:36.711Z,95751.16
2023-04-25T12:46:05.289Z,95747.69
2023-04-25T12:48:33.889Z,95743.41
2023-04-25T12:51:03.609Z,95745.03
2023-04-25T12:53:33.214Z,95749.50
2023-04-25T12:56:02.886Z,95743.75
2023-04-25T12:58:31.363Z,95730.69
2023-04-25T13:00:59.741Z,95730.72
2023-04-25T13:03:28.275Z,95727.94
2023-04-25T13:05:56.819Z,95726.41
2023-04-25T13:08:26.575Z,95726.47
2023-04-25T13:10:54.958Z,95730.84
2023-04-25T13:13:29.614Z,95730.41
2023-04-25T13:15:58.087Z,95734.59
2023-04-25T13:18:27.485Z,95736.38
2023-04-25T13:20:55.932Z,95751.78
2023-04-25T13:23:29.232Z,95749.47
2023-04-25T13:25:58.745Z,95753.25
2023-04-25T13:28:27.389Z,95755.81
2023-04-25T13:30:56.215Z,95757.09
2023-04-25T13:33:24.501Z,95774.09
2023-04-25T13:35:57.330Z,95760.66
2023-04-25T13:38:27.339Z,95762.88
2023-04-25T13:40:55.736Z,95769.03
2023-04-25T13:43:24.553Z,95774.16
2023-04-25T13:45:53.685Z,95772.00
2023-04-25T13:48:22.107Z,95785.22
2023-04-25T13:50:50.832Z,95790.69
2023-04-25T13:53:19.219Z,95784.75
2023-04-25T13:55:48.980Z,95787.63
2023-04-25T13:58:17.554Z,95779.66
2023-04-25T14:00:47.071Z,95780.47
2023-04-25T14:03:15.480Z,95781.41
2023-04-25T14:05:44.136Z,95781.78
2023-04-25T14:08:12.557Z,95787.47
2023-04-25T14:10:43.524Z,95786.03
2023-04-25T14:13:13.325Z,95783.66
2023-04-25T14:15:41.784Z,95785.34
2023-04-25T14:18:10.365Z,95788.63
2023-04-25T14:20:38.912Z,95786.13
2023-04-25T14:23:07.669Z,95785.69
2023-04-25T14:25:37.316Z,95787.72
2023-04-25T14:28:06.084Z,95797.19
2023-04-25T14:30:36.031Z,95800.13
2023-04-25T14:33:04.708Z,95816.28
2023-04-25T14:35:33.106Z,95801.09
2023-04-25T14:38:09.646Z,95806.53
2023-04-25T14:40:38.615Z,95820.41
2023-04-25T14:43:07.030Z,95849.22
2023-04-25T14:45:37.226Z,95856.44
2023-04-25T14:48:06.142Z,95847.88
2023-04-25T14:50:34.578Z,95851.69
2023-04-25T14:53:02.940Z,95847.06
2023-04-25T14:55:31.360Z,95852.81
2023-04-25T14:57:59.740Z,95841.94
2023-04-25T15:00:39.183Z,95843.94
2023-04-25T15:03:08.495Z,95848.00
2023-04-25T15:05:36.949Z,95846.69
2023-04-25T15:08:05.605Z,95847.09
2023-04-25T15:10:34.049Z,95855.47
2023-04-25T15:13:03.043Z,95862.41
2023-04-25T15:15:31.615Z,95864.00
2023-04-25T15:18:01.949Z,95855.38
2023-04-25T15:20:30.862Z,95856.50
2023-04-25T15:22:59.806Z,95865.28
2023-04-25T15:25:29.488Z,95863.34
2023-04-25T15:27:59.197Z,95874.72
2023-04-25T15:30:27.863Z,95876.88
2023-04-25T15:32:56.353Z,95872.25
2023-04-25T15:35:26.390Z,95875.69
2023-04-25T15:37:55.242Z,95885.97
2023-04-25T15:40:23.582Z,95888.25
2023-04-25T15:42:55.438Z,95893.72
2023-04-25T15:45:26.103Z,95890.06
2023-04-25T15:47:56.860Z,95896.03
2023-04-25T15:50:27.106Z,95891.59
2023-04-25T15:52:55.635Z,95892.41
2023-04-25T15:55:26.807Z,95899.66
2023-04-25T15:57:55.868Z,95904.94
2023-04-25T16:00:24.741Z,95907.25
2023-04-25T16:02:53.478Z,95906.44
2023-04-25T16:05:24.072Z,95913.16
2023-04-25T16:08:04.717Z,95913.50
2023-04-25T16:10:34.126Z,95909.84
2023-04-25T16:13:02.497Z,95917.91
2023-04-25T16:15:34.605Z,95916.78
2023-04-25T16:18:04.080Z,95922.03
2023-04-25T16:20:32.481Z,95922.81
2023-04-25T16:23:01.344Z,95916.53
2023-04-25T16:25:31.496Z,95927.44
2023-04-25T16:27:59.984Z,95927.94
2023-04-25T16:30:28.583Z,95928.16
2023-04-25T16:32:58.155Z,95929.69
2023-04-25T16:35:30.523Z,95926.09
2023-04-25T16:37:59.089Z,95930.34
2023-04-25T16:40:28.262Z,95926.09
2023-04-25T16:42:58.416Z,95928.56
2023-04-25T16:45:27.847Z,95932.69
2023-04-25T16:47:57.116Z,95928.72
2023-04-25T16:50:26.813Z,95929.06
2023-04-25T16:52:55.711Z,95939.13
2023-04-25T16:55:24.146Z,95942.91
2023-04-25T16:57:52.648Z,95939.28
2023-04-25T17:00:22.942Z,95944.56
2023-04-25T17:02:52.350Z,95953.44
2023-04-25T17:05:30.565Z,95956.09
2023-04-25T17:07:59.034Z,95954.41
2023-04-25T17:10:27.494Z,95968.91
2023-04-25T17:13:03.725Z,95966.78
2023-04-25T17:15:34.447Z,95968.78
2023-04-25T17:18:03.123Z,95978.38
2023-04-25T17:20:38.299Z,95975.22
2023-04-25T17:23:06.642Z,95986.13
2023-04-25T17:25:35.071Z,95985.78
2023-04-25T17:28:03.886Z,95988.25
2023-04-25T17:30:34.472Z,95992.88
2023-04-25T17:33:03.446Z,95991.41
2023-04-25T17:35:33.931Z,95995.53
2023-04-25T17:38:02.344Z,96000.44
2023-04-25T17:40:30.821Z,96000.78
2023-04-25T17:42:59.222Z,96002.44
2023-04-25T17:45:28.869Z,96003.59
2023-04-25T17:47:58.646Z,96008.72
2023-04-25T17:50:27.332Z,96016.28
2023-04-25T17:52:56.769Z,96019.78
2023-04-25T17:55:25.906Z,96022.41
2023-04-25T17:57:55.734Z,96029.16
2023-04-25T18:00:24.530Z,96023.53
2023-04-25T18:02:53.071Z,96026.16
2023-04-25T18:05:23.505Z,96029.97
2023-04-25T18:07:52.134Z,96037.88
2023-04-25T18:10:20.554Z,96032.94
2023-04-25T18:12:50.469Z,96036.56
2023-04-25T18:15:19.125Z,96044.13
2023-04-25T18:17:58.268Z,96046.78
2023-04-25T18:20:28.593Z,96049.41
2023-04-25T18:22:59.100Z,96052.63
2023-04-25T18:25:27.590Z,96061.19
2023-04-25T18:28:01.146Z,96051.31
2023-04-25T18:30:30.056Z,96059.72
2023-04-25T18:32:58.853Z,96063.84
2023-04-25T18:35:28.816Z,96072.91
2023-04-25T18:37:58.283Z,96074.44
2023-04-25T18:40:26.648Z,96075.22
2023-04-25T18:42:55.094Z,96081.97
2023-04-25T18:45:23.477Z,96087.91
2023-04-25T18:48:02.629Z,96089.03
2023-04-25T18:50:33.265Z,96094.47
2023-04-25T18:53:02.110Z,96103.00
2023-04-25T18:55:30.588Z,96107.94
2023-04-25T18:57:58.996Z,96119.13
2023-04-25T19:00:27.631Z,96111.38
2023-04-25T19:03:03.278Z,96118.94
2023-04-25T19:05:33.218Z,96117.31
2023-04-25T19:08:01.711Z,96112.84
2023-04-25T19:10:30.179Z,96122.09
2023-04-25T19:12:58.534Z,96118.34
2023-04-25T19:15:26.942Z,96124.41
2023-04-25T19:17:57.922Z,96127.88
2023-04-25T19:20:26.334Z,96124.56
2023-04-25T19:22:58.224Z,96139.06
2023-04-25T19:25:27.065Z,96128.09
2023-04-25T19:27:55.492Z,96131.69
2023-04-25T19:30:24.089Z,96139.44
2023-04-25T19:32:52.506Z,96137.13
2023-04-25T19:35:21.047Z,96135.84
2023-04-25T19:37:49.783Z,96129.81
2023-04-25T19:40:22.702Z,96139.34
2023-04-25T19:42:51.142Z,96143.97
2023-04-25T19:45:19.615Z,96142.69
2023-04-25T19:47:52.593Z,96154.41
2023-04-25T19:50:21.716Z,96154.41
2023-04-25T19:52:50.130Z,96154.41
2023-04-25T19:55:20.120Z,96151.97
2023-04-25T19:57:48.582Z,96161.69
2023-04-25T20:00:20.164Z,96168.16
2023-04-25T20:02:48.787Z,96159.56
2023-04-25T20:05:20.281Z,96160.56
2023-04-25T20:07:48.652Z,96168.66
2023-04-25T20:10:17.413Z,96171.81
2023-04-25T20:12:47.248Z,96171.16
2023-04-25T20:15:19.444Z,96171.81
2023-04-25T20:17:48.573Z,96180.03
2023-04-25T20:20:17.435Z,96170.84
2023-04-25T20:22:46.389Z,96170.84
2023-04-25T20:25:14.948Z,96182.53
2023-04-25T20:27:43.443Z,96183.19
2023-04-25T20:30:15.490Z,96179.22
2023-04-25T20:32:44.007Z,96183.16
2023-04-25T20:35:13.652Z,96175.75
2023-04-25T20:37:51.879Z,96169.81
2023-04-25T20:40:20.266Z,96175.09
2023-04-25T20:42:49.558Z,96177.41
2023-04-25T20:45:19.551Z,96179.38
2023-04-25T20:47:47.961Z,96172.13
2023-04-25T20:50:16.443Z,96179.00
2023-04-25T20:52:45.161Z,96177.53
2023-04-25T20:55:13.584Z,96182.16
2023-04-25T20:57:42.399Z,96183.47
2023-04-25T21:00:17.445Z,96181.16
2023-04-25T21:02:51.192Z,96181.81
2023-04-25T21:05:22.232Z,96196.16
2023-04-25T21:07:52.326Z,96183.41
2023-04-25T21:10:21.032Z,96196.00
2023-04-25T21:12:50.069Z,96191.50
2023-04-25T21:15:20.491Z,96197.41
2023-04-25T21:17:51.704Z,96193.91
2023-04-25T21:20:22.116Z,96198.00
2023-04-25T21:22:54.274Z,96196.50
2023-04-25T21:25:29.185Z,96192.25
2023-04-25T21:28:02.387Z,96189.91
2023-04-25T21:30:33.287Z,96186.13
2023-04-25T21:33:04.747Z,96185.84
2023-04-25T21:35:33.378Z,96184.75
2023-04-25T21:38:01.740Z,96182.66
2023-04-25T21:40:30.310Z,96187.84
2023-04-25T21:42:58.793Z,96184.72
2023-04-25T21:45:29.140Z,96178.94
2023-04-25T21:48:00.099Z,96178.22
2023-04-25T21:50:29.884Z,96174.69
2023-04-25T21:53:00.429Z,96176.63
2023-04-25T21:55:29.622Z,96187.78
2023-04-25T21:57:59.794Z,96185.94
2023-04-25T22:00:28.521Z,96195.44
2023-04-25T22:02:58.470Z,96194.09
2023-04-25T22:05:28.217Z,96184.53
2023-04-25T22:07:59.645Z,96183.53
2023-04-25T22:10:28.421Z,96180.84
2023-04-25T22:12:56.905Z,96183.78
2023-04-25T22:15:25.346Z,96186.22
2023-04-25T22:17:55.506Z,96177.47
2023-04-25T22:20:26.175Z,96180.09
2023-04-25T22:22:55.622Z,96174.00
2023-04-25T22:25:35.531Z,96178.09
2023-04-25T22:28:07.430Z,96172.28
2023-04-25T22:30:37.172Z,96182.97
2023-04-25T22:33:05.611Z,96184.50
2023-04-25T22:35:34.117Z,96190.56
2023-04-25T22:38:02.470Z,96189.09
2023-04-25T22:40:30.788Z,96192.81
2023-04-25T22:43:02.169Z,96195.16
2023-04-25T22:45:30.585Z,96190.88
2023-04-25T22:48:00.362Z,96198.94
2023-04-25T22:50:28.747Z,96197.59
2023-04-25T22:52:57.091Z,96203.00
2023-04-25T22:55:26.488Z,96203.00
2023-04-25T22:58:02.649Z,96198.72
2023-04-25T23:00:31.102Z,96207.59
2023-04-25T23:03:10.842Z,96207.91
2023-04-25T23:05:39.291Z,96213.31
2023-04-25T23:08:07.628Z,96206.53
2023-04-25T23:10:37.094Z,96203.78
2023-04-25T23:13:06.796Z,96205.34
2023-04-25T23:15:35.641Z,96211.38
2023-04-25T23:18:04.361Z,96213.59
2023-04-25T23:20:36.084Z,96213.59
2023-04-25T23:23:05.010Z,96213.47
2023-04-25T23:25:33.656Z,96206.91
2023-04-25T23:28:01.989Z,96207.91
2023-04-25T23:30:32.144Z,96209.56
2023-04-25T23:33:04.186Z,96211.06
2023-04-25T23:35:36.093Z,96218.28
2023-04-25T23:38:04.616Z,96208.59
2023-04-25T23:40:33.336Z,96215.19
2023-04-25T23:43:03.514Z,96219.84
2023-04-25T23:45:33.315Z,96223.91
2023-04-25T23:48:02.871Z,96215.19
2023-04-25T23:50:31.949Z,96223.75
2023-04-25T23:53:01.893Z,96224.75
2023-04-25T23:55:30.848Z,96223.63
2023-04-25T23:57:59.602Z,96225.13
